sensor_id;sensor_type;location;lat;lon;timestamp;P1;durP1;ratioP1;P2;durP2;ratioP2
69706;SDS011;56975;55.726;37.566;2023-12-07T00:00:00;19.6;;;9.8;;
69706;SDS011;56975;55.726;37.566;2023-12-07T00:10:00;22.7;;;12.2;;
69706;SDS011;56975;55.726;37.566;2023-12-07T00:15:00;26.4;;;13.4;;
69706;SDS011;56975;55.726;37.566;2023-12-07T00:25:00;31.8;;;14.2;;
69706;SDS011;56975;55.726;37.566;2023-12-07T00:30:00;28.9;;;13.6;;
69706;SDS011;56975;55.726;37.566;2023-12-07T00:40:00;27.2;;;14.9;;
69706;SDS011;56975;55.726;37.566;2023-12-07T00:45:00;28.1;;;14.2;;
69706;SDS011;56975;55.726;37.566;2023-12-07T00:55:00;23.7;;;13.4;;
69706;SDS011;56975;55.726;37.566;2023-12-07T01:00:00;24.6;;;12.9;;
69706;SDS011;56975;55.726;37.566;2023-12-07T01:10:00;28.2;;;13.4;;
69706;SDS011;56975;55.726;37.566;2023-12-07T01:15:00;26.1;;;11.8;;
69706;SDS011;56975;55.726;37.566;2023-12-07T01:25:00;29.8;;;14.2;;
69706;SDS011;56975;55.726;37.566;2023-12-07T01:30:00;21.7;;;12.0;;
69706;SDS011;56975;55.726;37.566;2023-12-07T01:40:00;24.3;;;11.5;;
69706;SDS011;56975;55.726;37.566;2023-12-07T01:45:00;28.7;;;14.1;;
69706;SDS011;56975;55.726;37.566;2023-12-07T02:00:00;26.1;;;13.0;;
69706;SDS011;56975;55.726;37.566;2023-12-07T02:05:00;21.3;;;11.6;;
69706;SDS011;56975;55.726;37.566;2023-12-07T02:15:00;19.1;;;10.6;;
69706;SDS011;56975;55.726;37.566;2023-12-07T02:20:01;24.9;;;11.4;;
69706;SDS011;56975;55.726;37.566;2023-12-07T02:30:00;28.5;;;12.9;;
69706;SDS011;56975;55.726;37.566;2023-12-07T02:35:00;31.0;;;12.5;;
69706;SDS011;56975;55.726;37.566;2023-12-07T02:45:00;22.4;;;10.8;;
69706;SDS011;56975;55.726;37.566;2023-12-07T02:50:00;25.5;;;11.7;;
69706;SDS011;56975;55.726;37.566;2023-12-07T03:00:00;22.4;;;11.8;;
69706;SDS011;56975;55.726;37.566;2023-12-07T03:05:00;28.0;;;12.1;;
69706;SDS011;56975;55.726;37.566;2023-12-07T03:15:00;20.3;;;9.8;;
69706;SDS011;56975;55.726;37.566;2023-12-07T03:20:00;22.5;;;11.5;;
69706;SDS011;56975;55.726;37.566;2023-12-07T03:30:00;16.3;;;9.4;;
69706;SDS011;56975;55.726;37.566;2023-12-07T03:35:00;15.5;;;8.3;;
69706;SDS011;56975;55.726;37.566;2023-12-07T03:45:00;20.1;;;11.3;;
69706;SDS011;56975;55.726;37.566;2023-12-07T03:50:00;18.3;;;9.4;;
69706;SDS011;56975;55.726;37.566;2023-12-07T04:00:00;13.9;;;8.6;;
69706;SDS011;56975;55.726;37.566;2023-12-07T04:05:00;18.2;;;8.8;;
69706;SDS011;56975;55.726;37.566;2023-12-07T04:15:00;15.2;;;9.4;;
69706;SDS011;56975;55.726;37.566;2023-12-07T04:20:00;22.7;;;8.1;;
69706;SDS011;56975;55.726;37.566;2023-12-07T04:30:00;19.0;;;10.3;;
69706;SDS011;56975;55.726;37.566;2023-12-07T04:35:00;20.3;;;9.3;;
69706;SDS011;56975;55.726;37.566;2023-12-07T04:45:00;15.6;;;7.9;;
69706;SDS011;56975;55.726;37.566;2023-12-07T04:50:00;22.5;;;10.7;;
69706;SDS011;56975;55.726;37.566;2023-12-07T05:00:00;11.8;;;6.9;;
69706;SDS011;56975;55.726;37.566;2023-12-07T05:05:00;15.4;;;9.1;;
69706;SDS011;56975;55.726;37.566;2023-12-07T05:15:00;29.3;;;12.2;;
69706;SDS011;56975;55.726;37.566;2023-12-07T05:20:00;23.2;;;11.7;;
69706;SDS011;56975;55.726;37.566;2023-12-07T05:30:00;15.0;;;8.0;;
69706;SDS011;56975;55.726;37.566;2023-12-07T05:35:00;19.4;;;8.5;;
69706;SDS011;56975;55.726;37.566;2023-12-07T05:45:00;26.5;;;10.8;;
69706;SDS011;56975;55.726;37.566;2023-12-07T05:50:00;25.3;;;10.3;;
69706;SDS011;56975;55.726;37.566;2023-12-07T06:00:00;18.7;;;10.4;;
69706;SDS011;56975;55.726;37.566;2023-12-07T06:05:00;30.6;;;13.4;;
69706;SDS011;56975;55.726;37.566;2023-12-07T06:15:00;17.3;;;9.3;;
69706;SDS011;56975;55.726;37.566;2023-12-07T06:20:00;12.7;;;6.8;;
69706;SDS011;56975;55.726;37.566;2023-12-07T06:30:00;21.4;;;11.4;;
69706;SDS011;56975;55.726;37.566;2023-12-07T06:35:00;13.8;;;6.7;;
69706;SDS011;56975;55.726;37.566;2023-12-07T06:45:01;16.0;;;9.6;;
69706;SDS011;56975;55.726;37.566;2023-12-07T06:50:00;18.2;;;8.3;;
69706;SDS011;56975;55.726;37.566;2023-12-07T07:00:00;12.8;;;7.3;;
69706;SDS011;56975;55.726;37.566;2023-12-07T07:05:00;18.9;;;10.2;;
69706;SDS011;56975;55.726;37.566;2023-12-07T07:15:00;28.6;;;12.5;;
69706;SDS011;56975;55.726;37.566;2023-12-07T07:20:00;20.6;;;11.7;;
69706;SDS011;56975;55.726;37.566;2023-12-07T07:30:00;28.1;;;12.7;;
69706;SDS011;56975;55.726;37.566;2023-12-07T07:35:00;23.2;;;11.0;;
69706;SDS011;56975;55.726;37.566;2023-12-07T07:50:00;24.8;;;13.2;;
69706;SDS011;56975;55.726;37.566;2023-12-07T08:00:00;23.3;;;12.2;;
69706;SDS011;56975;55.726;37.566;2023-12-07T08:05:00;17.0;;;7.8;;
69706;SDS011;56975;55.726;37.566;2023-12-07T08:15:00;18.5;;;9.2;;
69706;SDS011;56975;55.726;37.566;2023-12-07T08:20:00;26.1;;;13.4;;
69706;SDS011;56975;55.726;37.566;2023-12-07T08:30:00;39.6;;;14.9;;
69706;SDS011;56975;55.726;37.566;2023-12-07T08:35:00;30.4;;;14.9;;
69706;SDS011;56975;55.726;37.566;2023-12-07T08:45:00;25.0;;;13.4;;
69706;SDS011;56975;55.726;37.566;2023-12-07T08:50:00;36.0;;;18.6;;
69706;SDS011;56975;55.726;37.566;2023-12-07T09:00:00;37.9;;;18.1;;
69706;SDS011;56975;55.726;37.566;2023-12-07T09:05:00;35.9;;;16.9;;
69706;SDS011;56975;55.726;37.566;2023-12-07T09:15:00;34.1;;;16.2;;
69706;SDS011;56975;55.726;37.566;2023-12-07T09:20:00;36.4;;;13.4;;
69706;SDS011;56975;55.726;37.566;2023-12-07T09:30:00;38.7;;;17.7;;
69706;SDS011;56975;55.726;37.566;2023-12-07T09:35:00;37.5;;;11.5;;
69706;SDS011;56975;55.726;37.566;2023-12-07T09:45:00;31.4;;;14.6;;
69706;SDS011;56975;55.726;37.566;2023-12-07T09:50:00;20.3;;;11.9;;
69706;SDS011;56975;55.726;37.566;2023-12-07T10:00:00;29.4;;;13.6;;
69706;SDS011;56975;55.726;37.566;2023-12-07T10:05:03;36.1;;;16.1;;
69706;SDS011;56975;55.726;37.566;2023-12-07T10:15:00;31.6;;;14.7;;
69706;SDS011;56975;55.726;37.566;2023-12-07T10:20:07;29.8;;;15.3;;
69706;SDS011;56975;55.726;37.566;2023-12-07T10:30:00;35.9;;;16.2;;
69706;SDS011;56975;55.726;37.566;2023-12-07T10:35:00;25.5;;;12.4;;
69706;SDS011;56975;55.726;37.566;2023-12-07T10:45:01;32.5;;;15.3;;
69706;SDS011;56975;55.726;37.566;2023-12-07T10:50:00;24.6;;;11.2;;
69706;SDS011;56975;55.726;37.566;2023-12-07T11:00:00;29.0;;;13.8;;
69706;SDS011;56975;55.726;37.566;2023-12-07T11:05:00;27.3;;;12.7;;
69706;SDS011;56975;55.726;37.566;2023-12-07T11:15:00;30.2;;;13.3;;
69706;SDS011;56975;55.726;37.566;2023-12-07T11:20:00;31.6;;;14.8;;
69706;SDS011;56975;55.726;37.566;2023-12-07T11:30:00;28.4;;;15.1;;
69706;SDS011;56975;55.726;37.566;2023-12-07T11:35:02;28.3;;;14.3;;
69706;SDS011;56975;55.726;37.566;2023-12-07T11:50:01;27.8;;;13.4;;
69706;SDS011;56975;55.726;37.566;2023-12-07T12:00:00;27.5;;;13.0;;
69706;SDS011;56975;55.726;37.566;2023-12-07T12:05:00;34.4;;;16.5;;
69706;SDS011;56975;55.726;37.566;2023-12-07T12:15:00;30.0;;;15.1;;
69706;SDS011;56975;55.726;37.566;2023-12-07T12:20:00;28.2;;;14.0;;
69706;SDS011;56975;55.726;37.566;2023-12-07T12:30:00;29.8;;;13.9;;
69706;SDS011;56975;55.726;37.566;2023-12-07T12:35:00;30.9;;;14.1;;
69706;SDS011;56975;55.726;37.566;2023-12-07T12:45:00;29.2;;;14.7;;
69706;SDS011;56975;55.726;37.566;2023-12-07T12:50:00;26.5;;;13.9;;
69706;SDS011;56975;55.726;37.566;2023-12-07T13:00:00;20.3;;;9.3;;
69706;SDS011;56975;55.726;37.566;2023-12-07T13:05:00;23.3;;;11.4;;
69706;SDS011;56975;55.726;37.566;2023-12-07T13:15:00;24.3;;;12.2;;
69706;SDS011;56975;55.726;37.566;2023-12-07T13:20:00;33.8;;;11.0;;
69706;SDS011;56975;55.726;37.566;2023-12-07T13:30:00;17.6;;;8.5;;
69706;SDS011;56975;55.726;37.566;2023-12-07T13:35:00;22.4;;;10.4;;
69706;SDS011;56975;55.726;37.566;2023-12-07T13:45:00;17.4;;;8.2;;
69706;SDS011;56975;55.726;37.566;2023-12-07T13:50:00;10.2;;;5.8;;
69706;SDS011;56975;55.726;37.566;2023-12-07T14:00:00;13.0;;;7.2;;
69706;SDS011;56975;55.726;37.566;2023-12-07T14:05:00;11.8;;;6.6;;
69706;SDS011;56975;55.726;37.566;2023-12-07T14:15:00;15.8;;;9.2;;
69706;SDS011;56975;55.726;37.566;2023-12-07T14:20:00;15.1;;;8.0;;
69706;SDS011;56975;55.726;37.566;2023-12-07T14:30:00;23.8;;;9.7;;
69706;SDS011;56975;55.726;37.566;2023-12-07T14:35:00;15.6;;;8.2;;
69706;SDS011;56975;55.726;37.566;2023-12-07T14:45:00;12.7;;;5.4;;
69706;SDS011;56975;55.726;37.566;2023-12-07T14:50:00;17.9;;;8.4;;
69706;SDS011;56975;55.726;37.566;2023-12-07T15:00:00;13.4;;;6.7;;
69706;SDS011;56975;55.726;37.566;2023-12-07T15:05:00;10.1;;;5.4;;
69706;SDS011;56975;55.726;37.566;2023-12-07T15:15:00;10.8;;;5.5;;
69706;SDS011;56975;55.726;37.566;2023-12-07T15:20:00;11.1;;;5.7;;
69706;SDS011;56975;55.726;37.566;2023-12-07T15:30:00;12.8;;;5.8;;
69706;SDS011;56975;55.726;37.566;2023-12-07T15:35:00;12.8;;;7.0;;
69706;SDS011;56975;55.726;37.566;2023-12-07T15:45:00;13.3;;;6.7;;
69706;SDS011;56975;55.726;37.566;2023-12-07T15:50:00;9.0;;;4.8;;
69706;SDS011;56975;55.726;37.566;2023-12-07T16:00:00;18.5;;;9.5;;
69706;SDS011;56975;55.726;37.566;2023-12-07T16:05:00;14.6;;;7.6;;
69706;SDS011;56975;55.726;37.566;2023-12-07T16:15:00;13.7;;;6.3;;
69706;SDS011;56975;55.726;37.566;2023-12-07T16:20:00;6.8;;;4.6;;
69706;SDS011;56975;55.726;37.566;2023-12-07T16:30:00;8.3;;;4.9;;
69706;SDS011;56975;55.726;37.566;2023-12-07T16:35:00;11.0;;;5.5;;
69706;SDS011;56975;55.726;37.566;2023-12-07T16:45:00;16.1;;;7.0;;
69706;SDS011;56975;55.726;37.566;2023-12-07T16:50:00;11.4;;;6.3;;
69706;SDS011;56975;55.726;37.566;2023-12-07T17:00:00;12.1;;;6.3;;
69706;SDS011;56975;55.726;37.566;2023-12-07T17:05:00;10.4;;;5.0;;
69706;SDS011;56975;55.726;37.566;2023-12-07T17:15:00;8.8;;;4.5;;
69706;SDS011;56975;55.726;37.566;2023-12-07T17:20:00;10.7;;;6.1;;
69706;SDS011;56975;55.726;37.566;2023-12-07T17:30:00;10.3;;;5.8;;
69706;SDS011;56975;55.726;37.566;2023-12-07T17:35:00;8.5;;;4.9;;
69706;SDS011;56975;55.726;37.566;2023-12-07T17:45:00;8.7;;;5.3;;
69706;SDS011;56975;55.726;37.566;2023-12-07T17:50:00;10.7;;;5.1;;
69706;SDS011;56975;55.726;37.566;2023-12-07T18:00:00;8.7;;;4.4;;
69706;SDS011;56975;55.726;37.566;2023-12-07T18:05:00;7.2;;;4.0;;
69706;SDS011;56975;55.726;37.566;2023-12-07T18:15:00;7.3;;;4.4;;
69706;SDS011;56975;55.726;37.566;2023-12-07T18:20:00;7.3;;;4.3;;
69706;SDS011;56975;55.726;37.566;2023-12-07T18:30:00;12.5;;;6.7;;
69706;SDS011;56975;55.726;37.566;2023-12-07T18:35:00;8.6;;;4.6;;
69706;SDS011;56975;55.726;37.566;2023-12-07T18:45:00;12.3;;;5.6;;
69706;SDS011;56975;55.726;37.566;2023-12-07T18:50:00;12.8;;;6.1;;
69706;SDS011;56975;55.726;37.566;2023-12-07T19:00:00;13.0;;;6.1;;
69706;SDS011;56975;55.726;37.566;2023-12-07T19:05:00;9.4;;;5.2;;
69706;SDS011;56975;55.726;37.566;2023-12-07T19:15:00;8.3;;;4.8;;
69706;SDS011;56975;55.726;37.566;2023-12-07T19:20:00;12.8;;;6.5;;
69706;SDS011;56975;55.726;37.566;2023-12-07T19:30:00;8.0;;;4.6;;
69706;SDS011;56975;55.726;37.566;2023-12-07T19:35:00;13.5;;;6.2;;
69706;SDS011;56975;55.726;37.566;2023-12-07T19:45:00;10.5;;;5.7;;
69706;SDS011;56975;55.726;37.566;2023-12-07T19:50:00;11.1;;;5.0;;
69706;SDS011;56975;55.726;37.566;2023-12-07T20:00:00;7.7;;;4.9;;
69706;SDS011;56975;55.726;37.566;2023-12-07T20:05:00;10.9;;;5.5;;
69706;SDS011;56975;55.726;37.566;2023-12-07T20:15:00;8.8;;;4.4;;
69706;SDS011;56975;55.726;37.566;2023-12-07T20:20:00;9.5;;;4.6;;
69706;SDS011;56975;55.726;37.566;2023-12-07T20:30:00;6.6;;;4.4;;
69706;SDS011;56975;55.726;37.566;2023-12-07T20:35:00;6.1;;;3.9;;
69706;SDS011;56975;55.726;37.566;2023-12-07T20:45:00;6.8;;;3.6;;
69706;SDS011;56975;55.726;37.566;2023-12-07T20:50:00;11.4;;;5.5;;
69706;SDS011;56975;55.726;37.566;2023-12-07T21:00:00;9.5;;;5.8;;
69706;SDS011;56975;55.726;37.566;2023-12-07T21:05:00;7.7;;;5.3;;
69706;SDS011;56975;55.726;37.566;2023-12-07T21:15:00;11.7;;;5.4;;
69706;SDS011;56975;55.726;37.566;2023-12-07T21:20:00;9.6;;;4.9;;
69706;SDS011;56975;55.726;37.566;2023-12-07T21:30:00;14.9;;;6.8;;
69706;SDS011;56975;55.726;37.566;2023-12-07T21:35:00;10.6;;;5.7;;
69706;SDS011;56975;55.726;37.566;2023-12-07T21:45:00;15.1;;;7.1;;
69706;SDS011;56975;55.726;37.566;2023-12-07T21:50:00;11.3;;;5.6;;
69706;SDS011;56975;55.726;37.566;2023-12-07T22:00:00;13.2;;;6.4;;
69706;SDS011;56975;55.726;37.566;2023-12-07T22:05:00;13.9;;;6.6;;
69706;SDS011;56975;55.726;37.566;2023-12-07T22:15:00;14.1;;;7.0;;
69706;SDS011;56975;55.726;37.566;2023-12-07T22:20:00;14.1;;;6.7;;
69706;SDS011;56975;55.726;37.566;2023-12-07T22:35:00;9.4;;;6.0;;
69706;SDS011;56975;55.726;37.566;2023-12-07T22:45:00;10.4;;;5.2;;
69706;SDS011;56975;55.726;37.566;2023-12-07T22:50:00;11.7;;;5.5;;
69706;SDS011;56975;55.726;37.566;2023-12-07T23:00:00;15.1;;;6.6;;
69706;SDS011;56975;55.726;37.566;2023-12-07T23:05:00;6.7;;;3.3;;
69706;SDS011;56975;55.726;37.566;2023-12-07T23:15:00;9.6;;;4.3;;
69706;SDS011;56975;55.726;37.566;2023-12-07T23:20:00;9.6;;;5.8;;
69706;SDS011;56975;55.726;37.566;2023-12-07T23:30:00;8.9;;;4.7;;
69706;SDS011;56975;55.726;37.566;2023-12-07T23:35:00;12.6;;;6.5;;
69706;SDS011;56975;55.726;37.566;2023-12-07T23:45:00;10.1;;;5.9;;
69706;SDS011;56975;55.726;37.566;2023-12-07T23:50:00;13.8;;;6.7;;
